Terminal Aerodrome Forecast
Issued by NWS

Home | Current Version | Previous Version | Graphics & Text | Print | Product List | Glossary Off
Versions: 1 2 3 4 5 6 7 8 9 10 11 12 13 14 15

000
FTUS43 KBIS 042328
TAFJMS
TAF
KJMS 042328Z 0500/0524 11006KT P6SM SCT250
     FM051600 18014KT P6SM SCT050 BKN150
     FM052100 18012KT P6SM VCTS BKN060CB=

USA.gov is the U.S. government's official web portal to all federal, state and local government web resources and services.